Time;durP1;ratioP1;P1;durP2;ratioP2;P2;SDS_P1;SDS_P2;PMS_P1;PMS_P2;Temp;Humidity;BMP_temperature;BMP_pressure;BME280_temperature;BME280_humidity;BME280_pressure;Samples;Min_cycle;Max_cycle;Signal;HPM_P1;HPM_P2
2021/12/22 00:00:45;;;;;;;42.30;25.02;;;;;;;-1.95;100.00;102763.50;5088323;28;20502;-77
2021/12/22 00:03:11;;;;;;;53.72;25.58;;;;;;;-1.96;100.00;102761.69;5110273;28;20023;-78
2021/12/22 00:05:43;;;;;;;52.53;25.25;;;;;;;-1.98;100.00;102755.44;5109876;28;20501;-77
2021/12/22 00:08:12;;;;;;;55.63;26.75;;;;;;;-1.98;100.00;102752.88;5088400;28;20063;-78
2021/12/22 00:10:38;;;;;;;50.60;24.88;;;;;;;-2.00;100.00;102754.41;5107206;28;20059;-78
2021/12/22 00:13:04;;;;;;;47.90;24.85;;;;;;;-2.02;100.00;102746.53;5100435;28;20063;-78
2021/12/22 00:15:30;;;;;;;48.65;25.27;;;;;;;-2.04;100.00;102743.75;5078449;28;20043;-78
2021/12/22 00:17:55;;;;;;;60.33;27.25;;;;;;;-2.01;100.00;102748.31;5109865;28;20035;-78
2021/12/22 00:20:23;;;;;;;54.00;26.77;;;;;;;-1.99;100.00;102743.28;5110036;28;20051;-77
2021/12/22 00:22:48;;;;;;;52.47;23.90;;;;;;;-1.99;100.00;102732.97;5093996;28;20083;-77
2021/12/22 00:25:15;;;;;;;54.92;26.48;;;;;;;-1.98;100.00;102727.06;5096788;28;20361;-77
2021/12/22 00:27:41;;;;;;;54.83;24.55;;;;;;;-1.99;100.00;102728.75;5090741;28;20024;-77
2021/12/22 00:30:07;;;;;;;44.80;25.27;;;;;;;-2.04;100.00;102724.81;5086369;28;20035;-79
2021/12/22 00:32:35;;;;;;;53.00;25.55;;;;;;;-2.08;100.00;102725.25;5069116;28;20031;-77
2021/12/22 00:35:04;;;;;;;54.15;24.48;;;;;;;-2.13;100.00;102723.91;5081781;28;20070;-77
2021/12/22 00:37:30;;;;;;;53.05;24.52;;;;;;;-2.15;100.00;102730.59;5114930;28;20043;-78
2021/12/22 00:39:59;;;;;;;52.58;24.60;;;;;;;-2.17;100.00;102733.03;5079043;28;20044;-78
2021/12/22 00:42:25;;;;;;;43.05;22.83;;;;;;;-2.13;100.00;102732.56;5101266;28;20360;-77
2021/12/22 00:44:53;;;;;;;50.28;22.48;;;;;;;-2.14;100.00;102733.31;5091476;28;20061;-77
2021/12/22 00:47:21;;;;;;;53.30;24.80;;;;;;;-2.18;100.00;102738.00;5091445;28;20024;-77
2021/12/22 00:49:47;;;;;;;45.13;22.85;;;;;;;-2.18;100.00;102726.03;5111814;28;20031;-79
2021/12/22 00:52:13;;;;;;;39.92;21.23;;;;;;;-2.24;100.00;102726.34;5099580;28;20024;-76
2021/12/22 00:54:39;;;;;;;54.80;25.25;;;;;;;-2.20;100.00;102727.53;5107930;28;20075;-76
2021/12/22 00:57:06;;;;;;;45.97;23.75;;;;;;;-2.23;100.00;102740.13;5111645;28;20031;-77
2021/12/22 00:59:35;;;;;;;42.40;21.25;;;;;;;-2.37;100.00;102734.53;5088099;28;20032;-78
2021/12/22 01:02:05;;;;;;;44.78;23.15;;;;;;;-2.32;100.00;102736.66;5089408;28;20472;-78
2021/12/22 01:04:31;;;;;;;45.22;23.23;;;;;;;-2.29;100.00;102732.72;5085662;28;20032;-76
2021/12/22 01:06:56;;;;;;;47.85;23.10;;;;;;;-2.41;100.00;102734.97;5099104;28;20019;-77
2021/12/22 01:09:22;;;;;;;52.08;23.95;;;;;;;-2.39;100.00;102735.13;5113950;28;20024;-78
2021/12/22 01:11:48;;;;;;;44.80;22.55;;;;;;;-2.52;100.00;102738.16;5094646;28;20024;-76
2021/12/22 01:14:14;;;;;;;43.55;21.67;;;;;;;-2.58;100.00;102747.84;5119322;28;20032;-76
2021/12/22 01:16:45;;;;;;;49.05;23.42;;;;;;;-2.64;100.00;102743.00;5097034;28;20077;-76
2021/12/22 01:19:14;;;;;;;51.17;23.60;;;;;;;-2.58;100.00;102738.47;5096339;28;20149;-78
2021/12/22 01:21:46;;;;;;;52.63;22.70;;;;;;;-2.61;100.00;102750.13;5112950;28;20472;-77
2021/12/22 01:24:20;;;;;;;49.95;22.30;;;;;;;-2.69;100.00;102743.28;5083452;28;20046;-77
2021/12/22 01:26:50;;;;;;;42.78;20.48;;;;;;;-2.73;100.00;102747.22;5096019;28;20023;-76
2021/12/22 01:29:16;;;;;;;52.88;22.52;;;;;;;-2.72;100.00;102742.22;5108251;28;20035;-79
2021/12/22 01:31:43;;;;;;;49.83;23.15;;;;;;;-2.75;100.00;102743.59;5120977;28;20031;-77
2021/12/22 01:34:09;;;;;;;40.38;21.20;;;;;;;-2.72;100.00;102741.31;5088924;28;20027;-77
2021/12/22 01:36:41;;;;;;;45.05;23.02;;;;;;;-2.65;100.00;102742.84;5117192;28;20035;-75
2021/12/22 01:39:07;;;;;;;52.05;21.67;;;;;;;-2.77;100.00;102740.88;5108329;28;20090;-76
2021/12/22 01:41:32;;;;;;;46.00;21.48;;;;;;;-2.83;100.00;102737.66;5114401;28;20031;-77
2021/12/22 01:43:58;;;;;;;43.85;21.50;;;;;;;-2.90;100.00;102736.13;5100609;28;20023;-76
2021/12/22 01:49:10;;;;;;;56.20;23.63;;;;;;;-2.83;100.00;102727.34;5110378;28;20134;-76
2021/12/22 01:51:35;;;;;;;44.63;22.88;;;;;;;-2.80;100.00;102731.91;5077321;28;20506;-76
2021/12/22 01:54:07;;;;;;;46.05;22.05;;;;;;;-2.77;100.00;102727.03;5092904;28;20028;-76
2021/12/22 01:56:34;;;;;;;50.90;22.05;;;;;;;-2.88;100.00;102719.16;5118141;28;20034;-77
2021/12/22 01:59:02;;;;;;;43.90;22.52;;;;;;;-2.92;100.00;102716.09;5093514;28;20039;-74
2021/12/22 02:01:32;;;;;;;40.15;21.40;;;;;;;-2.91;100.00;102715.34;5115863;28;20068;-74
2021/12/22 02:03:58;;;;;;;41.15;20.27;;;;;;;-2.95;100.00;102723.53;5090724;28;20051;-75
2021/12/22 02:06:23;;;;;;;43.92;21.60;;;;;;;-3.05;100.00;102721.69;5111507;28;20056;-75
2021/12/22 02:08:52;;;;;;;44.00;21.35;;;;;;;-3.11;100.00;102723.63;5114614;28;20031;-76
2021/12/22 02:11:18;;;;;;;38.33;19.63;;;;;;;-3.19;100.00;102719.38;5117596;28;20058;-75
2021/12/22 02:13:48;;;;;;;41.58;21.05;;;;;;;-3.24;100.00;102713.75;5115726;28;20047;-76
2021/12/22 02:16:17;;;;;;;47.25;21.10;;;;;;;-3.19;100.00;102725.41;5107465;28;20032;-76
2021/12/22 02:18:47;;;;;;;50.88;21.63;;;;;;;-3.11;100.00;102723.63;5106525;28;20491;-76
2021/12/22 02:21:13;;;;;;;46.30;22.23;;;;;;;-3.08;100.00;102726.50;5108355;28;20537;-76
2021/12/22 02:23:40;;;;;;;40.67;20.55;;;;;;;-3.13;100.00;102723.47;5106381;28;20034;-75
2021/12/22 02:26:53;;;;;;;50.75;20.80;;;;;;;-3.11;100.00;102731.34;5098201;28;20024;-75
2021/12/22 02:29:06;;;;;;;49.53;22.20;;;;;;;-3.01;100.00;102738.34;5088219;28;20050;-75
2021/12/22 02:31:39;;;;;;;40.28;20.73;;;;;;;-3.17;100.00;102731.63;5093307;28;20023;-74
2021/12/22 02:34:06;;;;;;;35.83;18.92;;;;;;;-3.26;100.00;102735.84;5087591;28;20085;-75
2021/12/22 02:36:38;;;;;;;43.65;21.40;;;;;;;-3.08;100.00;102742.88;5105635;28;20024;-76
2021/12/22 02:39:04;;;;;;;47.80;21.55;;;;;;;-3.05;100.00;102737.16;5077514;28;21696;-74
2021/12/22 02:41:31;;;;;;;39.58;19.85;;;;;;;-3.20;100.00;102733.91;5066447;28;20624;-76
2021/12/22 02:43:58;;;;;;;45.40;22.13;;;;;;;-3.28;100.00;102737.38;5048139;28;20067;-75
2021/12/22 02:46:25;;;;;;;53.85;23.25;;;;;;;-3.28;100.00;102747.66;5067499;28;20024;-73
2021/12/22 02:48:51;;;;;;;42.50;21.33;;;;;;;-3.27;100.00;102744.31;5059941;28;20042;-75
2021/12/22 02:51:18;;;;;;;48.72;21.50;;;;;;;-3.30;100.00;102738.84;5072735;28;20033;-75
2021/12/22 02:54:01;;;;;;;42.38;20.80;;;;;;;-3.32;100.00;102736.13;5065727;28;20024;-75
2021/12/22 02:56:37;;;;;;;46.77;21.37;;;;;;;-3.34;100.00;102729.00;5058416;28;20385;-74
2021/12/22 03:04:07;;;;;;;48.25;26.17;;;;;;;-3.39;100.00;102743.97;5061181;28;20037;-74
2021/12/22 03:06:51;;;;;;;46.72;22.35;;;;;;;-3.46;100.00;102736.34;5066213;28;20028;-75
2021/12/22 03:09:31;;;;;;;37.83;20.88;;;;;;;-3.50;100.00;102741.94;5067264;28;20865;-75
2021/12/22 03:12:00;;;;;;;53.00;23.30;;;;;;;-3.47;100.00;102738.03;5061521;28;20036;-74
2021/12/22 03:14:27;;;;;;;43.80;22.13;;;;;;;-3.42;100.00;102738.50;5063021;28;20037;-74
2021/12/22 03:16:53;;;;;;;50.05;23.00;;;;;;;-3.30;100.00;102723.41;5063531;28;20056;-74
2021/12/22 03:19:23;;;;;;;43.33;22.05;;;;;;;-3.37;100.00;102721.88;5060573;28;20110;-75
2021/12/22 03:21:52;;;;;;;52.80;23.13;;;;;;;-3.31;100.00;102725.09;5065022;28;20036;-75
2021/12/22 03:24:19;;;;;;;41.47;22.00;;;;;;;-3.35;100.00;102724.59;5066092;28;20025;-75
2021/12/22 03:26:45;;;;;;;47.67;21.40;;;;;;;-3.38;100.00;102730.34;5073458;28;20047;-74
2021/12/22 03:29:14;;;;;;;46.65;21.25;;;;;;;-3.43;100.00;102727.28;5062783;28;20033;-73
2021/12/22 03:31:41;;;;;;;50.03;22.20;;;;;;;-3.48;100.00;102725.91;5062463;28;20480;-74
2021/12/22 03:34:08;;;;;;;47.33;21.50;;;;;;;-3.52;100.00;102728.00;5061794;28;20066;-74
2021/12/22 03:36:34;;;;;;;47.45;22.27;;;;;;;-3.53;100.00;102718.47;5059777;28;20025;-75
2021/12/22 03:39:05;;;;;;;50.38;23.95;;;;;;;-3.40;100.00;102713.84;5095361;28;20092;-74
2021/12/22 03:41:34;;;;;;;45.80;21.90;;;;;;;-3.27;100.00;102718.56;5102623;28;20057;-73
2021/12/22 03:44:01;;;;;;;47.00;22.27;;;;;;;-3.36;100.00;102715.97;5093308;28;20035;-74
2021/12/22 03:46:27;;;;;;;49.63;20.73;;;;;;;-3.26;100.00;102717.81;5082962;28;20115;-74
2021/12/22 03:48:52;;;;;;;40.70;20.50;;;;;;;-3.24;100.00;102712.09;5088453;28;20074;-74
2021/12/22 03:51:18;;;;;;;46.08;22.00;;;;;;;-3.25;100.00;102702.53;5100526;28;20035;-73
2021/12/22 03:53:43;;;;;;;47.03;21.70;;;;;;;-3.36;100.00;102704.75;5074285;28;20547;-73
2021/12/22 03:56:09;;;;;;;52.42;20.95;;;;;;;-3.44;100.00;102702.31;5102113;28;20032;-74
2021/12/22 03:58:36;;;;;;;46.85;23.20;;;;;;;-3.33;100.00;102705.09;5084316;28;20019;-74
2021/12/22 04:01:03;;;;;;;42.60;22.45;;;;;;;-3.49;100.00;102697.44;5106707;28;20072;-75
2021/12/22 04:03:32;;;;;;;43.13;21.15;;;;;;;-3.58;100.00;102692.25;5100376;28;20059;-74
2021/12/22 04:05:57;;;;;;;43.33;21.65;;;;;;;-3.58;100.00;102700.88;5105136;28;20020;-75
2021/12/22 04:08:31;;;;;;;43.58;22.05;;;;;;;-3.55;100.00;102705.44;5097240;28;20399;-71
2021/12/22 04:10:56;;;;;;;46.97;21.90;;;;;;;-3.53;100.00;102698.78;5111023;28;20059;-73
2021/12/22 04:13:21;;;;;;;41.83;21.60;;;;;;;-3.54;100.00;102696.97;5110151;28;20103;-72
2021/12/22 04:15:48;;;;;;;57.95;25.95;;;;;;;-3.50;100.00;102703.34;5113712;28;20089;-73
2021/12/22 04:18:14;;;;;;;42.45;21.67;;;;;;;-3.48;100.00;102700.16;5111225;28;20028;-73
2021/12/22 04:20:40;;;;;;;58.22;24.40;;;;;;;-3.41;100.00;102688.84;5094754;28;20028;-74
2021/12/22 04:23:06;;;;;;;58.75;26.40;;;;;;;-3.34;100.00;102696.44;5078044;28;20115;-73
2021/12/22 04:25:33;;;;;;;53.10;24.52;;;;;;;-3.32;100.00;102689.78;5084232;28;20058;-72
2021/12/22 04:28:07;;;;;;;65.93;26.50;;;;;;;-3.30;100.00;102688.25;5112594;28;20043;-71
2021/12/22 04:30:39;;;;;;;61.88;27.02;;;;;;;-3.25;100.00;102686.19;5099189;28;20168;-73
2021/12/22 04:33:05;;;;;;;53.58;23.35;;;;;;;-3.22;100.00;102691.63;5098000;28;20024;-73
2021/12/22 04:35:31;;;;;;;63.05;25.80;;;;;;;-3.19;100.00;102689.38;5080026;28;20040;-73
2021/12/22 04:37:57;;;;;;;62.75;25.58;;;;;;;-3.20;100.00;102690.16;5103471;28;20044;-72
2021/12/22 04:40:26;;;;;;;58.95;25.73;;;;;;;-3.18;100.00;102682.56;5088882;28;20119;-72
2021/12/22 04:42:52;;;;;;;63.90;25.20;;;;;;;-3.17;100.00;102681.78;5108575;28;20068;-73
2021/12/22 04:45:18;;;;;;;53.55;25.48;;;;;;;-3.19;100.00;102675.59;5100160;28;20102;-73
2021/12/22 04:47:45;;;;;;;57.83;25.85;;;;;;;-3.17;100.00;102680.16;5106459;28;20117;-73
2021/12/22 04:50:15;;;;;;;59.38;26.00;;;;;;;-3.17;100.00;102675.00;5101222;28;20353;-73
2021/12/22 04:52:55;;;;;;;60.55;24.90;;;;;;;-3.17;100.00;102668.91;5091416;28;20114;-72
2021/12/22 04:55:22;;;;;;;58.13;25.58;;;;;;;-3.18;100.00;102670.59;5075849;28;20039;-72
2021/12/22 04:57:47;;;;;;;52.47;24.70;;;;;;;-3.21;100.00;102670.28;5086337;28;20057;-75
2021/12/22 05:00:16;;;;;;;59.58;25.30;;;;;;;-3.19;100.00;102665.28;5104780;28;20116;-75
2021/12/22 05:02:42;;;;;;;62.08;25.65;;;;;;;-3.18;100.00;102668.03;5091469;28;20042;-74
2021/12/22 05:05:08;;;;;;;57.53;25.38;;;;;;;-3.17;100.00;102669.84;5110595;28;20027;-75
2021/12/22 05:07:34;;;;;;;56.40;25.55;;;;;;;-3.18;100.00;102662.88;5107586;28;20088;-75
2021/12/22 05:09:59;;;;;;;67.97;26.35;;;;;;;-3.16;100.00;102660.44;5101539;28;20107;-73
2021/12/22 05:12:25;;;;;;;59.85;25.80;;;;;;;-3.19;100.00;102655.00;5108864;28;20112;-74
2021/12/22 05:14:52;;;;;;;70.05;25.58;;;;;;;-3.20;100.00;102651.53;5093093;28;20483;-74
2021/12/22 05:17:24;;;;;;;60.72;25.50;;;;;;;-3.22;100.00;102650.44;5100302;28;20035;-74
2021/12/22 05:19:50;;;;;;;57.67;24.52;;;;;;;-3.24;100.00;102651.97;5086431;28;20032;-74
2021/12/22 05:22:15;;;;;;;61.30;25.20;;;;;;;-3.26;100.00;102654.34;5107764;28;20129;-74
2021/12/22 05:24:41;;;;;;;56.50;25.13;;;;;;;-3.25;100.00;102650.13;5105170;28;20020;-74
2021/12/22 05:27:08;;;;;;;57.20;24.63;;;;;;;-3.25;100.00;102657.88;5108245;28;20024;-74
2021/12/22 05:29:34;;;;;;;56.45;24.58;;;;;;;-3.27;100.00;102651.63;5099832;28;20032;-74
2021/12/22 05:32:03;;;;;;;66.78;26.08;;;;;;;-3.23;100.00;102656.34;5103903;28;20036;-74
2021/12/22 05:34:28;;;;;;;60.45;25.17;;;;;;;-3.26;100.00;102653.47;5099593;28;20365;-75
2021/12/22 05:36:55;;;;;;;55.85;26.10;;;;;;;-3.28;100.00;102662.72;5102828;28;20024;-74
2021/12/22 05:39:20;;;;;;;64.03;25.48;;;;;;;-3.28;100.00;102657.56;5108083;28;20036;-74
2021/12/22 05:41:46;;;;;;;56.85;26.02;;;;;;;-3.30;100.00;102653.91;5106612;28;20483;-74
2021/12/22 05:44:12;;;;;;;62.47;25.48;;;;;;;-3.32;100.00;102657.97;5100950;28;20055;-74
2021/12/22 05:46:38;;;;;;;60.80;25.15;;;;;;;-3.33;100.00;102657.06;5109579;28;20032;-73
2021/12/22 05:49:03;;;;;;;59.40;25.67;;;;;;;-3.33;100.00;102651.03;5111447;28;20081;-73
2021/12/22 05:51:32;;;;;;;61.78;25.52;;;;;;;-3.36;100.00;102658.41;5103516;28;20028;-74
2021/12/22 05:53:58;;;;;;;67.22;25.77;;;;;;;-3.37;100.00;102652.38;5099143;28;20035;-74
2021/12/22 05:56:25;;;;;;;63.33;27.23;;;;;;;-3.41;100.00;102646.00;5097862;28;20028;-74
2021/12/22 05:58:51;;;;;;;55.47;26.13;;;;;;;-3.42;100.00;102651.91;5099275;28;20031;-73
2021/12/22 06:01:16;;;;;;;63.85;27.52;;;;;;;-3.43;100.00;102660.38;5105028;28;20031;-74
2021/12/22 06:03:42;;;;;;;67.50;26.25;;;;;;;-3.44;100.00;102653.41;5108297;28;20035;-73
2021/12/22 06:06:10;;;;;;;66.07;26.38;;;;;;;-3.44;100.00;102648.25;5111121;28;20019;-73
2021/12/22 06:08:35;;;;;;;62.63;24.15;;;;;;;-3.44;100.00;102660.22;5089640;28;20042;-73
2021/12/22 06:11:01;;;;;;;66.20;25.52;;;;;;;-3.44;100.00;102658.56;5100800;28;20398;-72
2021/12/22 06:13:26;;;;;;;61.08;26.55;;;;;;;-3.41;100.00;102663.09;5109757;28;20034;-73
2021/12/22 06:15:52;;;;;;;65.70;26.45;;;;;;;-3.42;100.00;102653.56;5084682;28;20039;-73
2021/12/22 06:18:18;;;;;;;63.05;25.48;;;;;;;-3.43;100.00;102649.16;5097116;28;20058;-72
2021/12/22 06:20:43;;;;;;;63.88;26.38;;;;;;;-3.43;100.00;102649.16;5102503;28;20043;-72
2021/12/22 06:23:09;;;;;;;65.13;26.83;;;;;;;-3.43;100.00;102650.09;5107905;28;20024;-73
2021/12/22 06:25:35;;;;;;;60.78;26.15;;;;;;;-3.45;100.00;102651.56;5110975;28;20027;-72
2021/12/22 06:28:01;;;;;;;67.57;26.13;;;;;;;-3.47;100.00;102647.97;5112924;28;20065;-73
2021/12/22 06:30:26;;;;;;;66.88;26.63;;;;;;;-3.49;100.00;102645.97;5115572;28;20584;-73
2021/12/22 06:32:53;;;;;;;59.72;26.15;;;;;;;-3.50;100.00;102642.50;5111069;28;20488;-73
2021/12/22 06:35:19;;;;;;;60.53;24.58;;;;;;;-3.49;100.00;102644.28;5099903;28;20034;-73
2021/12/22 06:37:44;;;;;;;61.60;26.35;;;;;;;-3.44;100.00;102643.09;5108833;28;20115;-73
2021/12/22 06:40:11;;;;;;;58.13;26.05;;;;;;;-3.46;100.00;102644.63;5111430;28;20548;-73
2021/12/22 06:42:38;;;;;;;57.47;26.27;;;;;;;-3.47;100.00;102642.81;5111235;28;20138;-73
2021/12/22 06:45:06;;;;;;;66.57;25.38;;;;;;;-3.49;100.00;102646.88;5100459;28;20059;-72
2021/12/22 06:47:32;;;;;;;57.30;24.98;;;;;;;-3.51;100.00;102647.47;5093843;28;20177;-71
2021/12/22 06:49:57;;;;;;;55.58;24.55;;;;;;;-3.52;100.00;102646.56;5100564;28;20475;-72
2021/12/22 06:52:28;;;;;;;70.57;24.73;;;;;;;-3.52;100.00;102654.28;5104511;28;20048;-70
2021/12/22 06:54:54;;;;;;;62.92;26.15;;;;;;;-3.53;100.00;102652.47;5106578;28;20039;-72
2021/12/22 06:57:21;;;;;;;61.40;24.75;;;;;;;-3.52;100.00;102648.25;5107163;28;20016;-72
2021/12/22 06:59:46;;;;;;;64.63;25.90;;;;;;;-3.53;100.00;102649.88;5112687;28;20119;-71
2021/12/22 07:02:13;;;;;;;59.90;26.05;;;;;;;-3.51;100.00;102652.59;5085035;28;20106;-71
2021/12/22 07:04:39;;;;;;;60.28;25.70;;;;;;;-3.52;100.00;102653.38;5085935;28;20023;-72
2021/12/22 07:07:04;;;;;;;57.35;24.90;;;;;;;-3.52;100.00;102646.56;5104635;28;20035;-72
2021/12/22 07:09:30;;;;;;;71.43;26.77;;;;;;;-3.52;100.00;102633.69;5083776;28;20028;-71
2021/12/22 07:11:56;;;;;;;63.45;26.05;;;;;;;-3.54;100.00;102635.22;5107609;28;20038;-73
2021/12/22 07:14:21;;;;;;;56.85;25.10;;;;;;;-3.55;100.00;102633.41;5102353;28;20031;-72
2021/12/22 07:16:47;;;;;;;73.53;27.05;;;;;;;-3.54;100.00;102637.78;5105123;28;20062;-72
2021/12/22 07:19:13;;;;;;;66.15;25.90;;;;;;;-3.55;100.00;102633.41;5095718;28;20027;-72
2021/12/22 07:21:39;;;;;;;61.70;25.88;;;;;;;-3.57;100.00;102633.25;5097547;28;20154;-72
2021/12/22 07:24:06;;;;;;;62.13;24.25;;;;;;;-3.59;100.00;102627.00;5083105;28;20038;-71
2021/12/22 07:26:32;;;;;;;67.50;26.27;;;;;;;-3.57;100.00;102628.09;5102238;28;20036;-71
2021/12/22 07:28:58;;;;;;;55.05;24.88;;;;;;;-3.59;100.00;102628.69;5108705;28;20027;-71
2021/12/22 07:31:23;;;;;;;58.72;25.25;;;;;;;-3.59;100.00;102627.00;5085377;28;20110;-71
2021/12/22 07:33:59;;;;;;;59.28;25.42;;;;;;;-3.59;100.00;102621.88;5088920;28;20047;-70
2021/12/22 07:36:24;;;;;;;63.50;25.30;;;;;;;-3.57;100.00;102616.88;5113086;28;20514;-71
2021/12/22 07:38:58;;;;;;;61.60;25.45;;;;;;;-3.59;100.00;102626.13;5100708;28;20116;-71
2021/12/22 07:41:24;;;;;;;57.85;26.00;;;;;;;-3.61;100.00;102627.59;5103585;28;20062;-71
2021/12/22 07:43:50;;;;;;;64.43;26.23;;;;;;;-3.60;100.00;102622.63;5094456;28;20036;-71
2021/12/22 07:46:16;;;;;;;63.40;26.50;;;;;;;-3.60;100.00;102619.16;5102221;28;20030;-72
2021/12/22 07:48:41;;;;;;;60.30;26.42;;;;;;;-3.61;100.00;102622.47;5082242;28;20023;-72
2021/12/22 07:51:07;;;;;;;65.60;26.10;;;;;;;-3.60;100.00;102632.91;5108836;28;20023;-71
2021/12/22 07:53:33;;;;;;;67.30;26.30;;;;;;;-3.59;100.00;102626.13;5100769;28;20361;-69
2021/12/22 07:55:59;;;;;;;66.10;25.58;;;;;;;-3.62;100.00;102624.13;5111735;28;20024;-70
2021/12/22 07:58:26;;;;;;;67.25;26.70;;;;;;;-3.61;100.00;102632.75;5084826;28;20028;-70
2021/12/22 08:00:53;;;;;;;59.60;25.83;;;;;;;-3.62;100.00;102631.84;5103737;28;20055;-70
2021/12/22 08:03:19;;;;;;;62.35;24.88;;;;;;;-3.62;100.00;102631.84;5083509;28;20367;-71
2021/12/22 08:05:46;;;;;;;59.75;26.08;;;;;;;-3.62;100.00;102641.22;5099478;28;20055;-70
2021/12/22 08:08:11;;;;;;;71.15;26.17;;;;;;;-3.61;100.00;102637.91;5096911;28;20035;-70
2021/12/22 08:10:37;;;;;;;71.25;28.85;;;;;;;-3.62;100.00;102639.56;5099374;28;20031;-70
2021/12/22 08:13:03;;;;;;;68.63;27.55;;;;;;;-3.59;100.00;102638.97;5110454;28;20072;-70
2021/12/22 08:15:29;;;;;;;76.90;29.38;;;;;;;-3.58;100.00;102638.19;5099066;28;20138;-71
2021/12/22 08:17:55;;;;;;;67.30;27.30;;;;;;;-3.56;100.00;102636.72;5079866;28;20048;-71
2021/12/22 08:20:20;;;;;;;66.55;27.35;;;;;;;-3.53;100.00;102644.75;5097087;28;20065;-71
2021/12/22 08:22:46;;;;;;;74.80;29.70;;;;;;;-3.52;100.00;102644.00;5100202;28;20035;-71
2021/12/22 08:25:18;;;;;;;68.35;27.08;;;;;;;-3.50;100.00;102637.34;5101195;28;20072;-70
2021/12/22 08:27:43;;;;;;;59.03;26.88;;;;;;;-3.50;100.00;102632.22;5099730;28;20413;-72
2021/12/22 08:30:15;;;;;;;71.70;27.92;;;;;;;-3.47;100.00;102635.09;5101717;28;20047;-71
2021/12/22 08:32:41;;;;;;;57.15;26.27;;;;;;;-3.45;100.00;102627.50;5102045;28;20540;-72
2021/12/22 08:35:09;;;;;;;60.70;27.40;;;;;;;-3.44;100.00;102637.06;5096039;28;20122;-72
2021/12/22 08:40:21;;;;;;;58.63;26.08;;;;;;;-3.35;100.00;102629.34;5102013;28;20084;-73
2021/12/22 08:42:47;;;;;;;64.38;27.38;;;;;;;-3.31;100.00;102624.69;5101954;28;20034;-71
2021/12/22 08:45:14;;;;;;;76.97;27.58;;;;;;;-3.27;100.00;102625.88;5104880;28;20028;-72
2021/12/22 08:47:40;;;;;;;68.55;27.23;;;;;;;-3.20;100.00;102622.28;5087126;28;20039;-71
2021/12/22 08:50:09;;;;;;;63.13;27.33;;;;;;;-3.15;100.00;102618.50;5096740;28;20043;-72
2021/12/22 08:52:35;;;;;;;59.00;25.95;;;;;;;-3.10;100.00;102620.78;5103413;28;20031;-72
2021/12/22 08:55:05;;;;;;;71.68;27.60;;;;;;;-3.05;100.00;102623.84;5084356;28;20089;-71
2021/12/22 08:57:30;;;;;;;62.30;27.73;;;;;;;-2.99;100.00;102623.53;5095220;28;20035;-71
2021/12/22 08:59:56;;;;;;;70.25;28.30;;;;;;;-2.91;100.00;102612.31;5103235;28;20027;-72
2021/12/22 09:02:22;;;;;;;61.72;26.42;;;;;;;-2.83;100.00;102616.56;5098954;28;20036;-73
2021/12/22 09:04:48;;;;;;;59.45;28.60;;;;;;;-2.75;100.00;102618.22;5080987;28;20072;-71
2021/12/22 09:07:13;;;;;;;61.88;27.52;;;;;;;-2.68;100.00;102618.84;5092744;28;20023;-72
2021/12/22 09:09:45;;;;;;;64.57;28.05;;;;;;;-2.60;100.00;102625.69;5104265;28;20043;-70
2021/12/22 09:12:10;;;;;;;66.28;28.48;;;;;;;-2.53;100.00;102640.97;5099287;28;20024;-71
2021/12/22 09:14:36;;;;;;;64.53;27.73;;;;;;;-2.48;100.00;102637.19;5112106;28;20380;-69
2021/12/22 09:17:02;;;;;;;64.47;29.30;;;;;;;-2.38;100.00;102641.56;5110927;28;20031;-69
2021/12/22 09:19:28;;;;;;;62.15;29.10;;;;;;;-2.33;100.00;102631.69;5101461;28;20027;-70
2021/12/22 09:21:54;;;;;;;58.63;28.58;;;;;;;-2.27;100.00;102628.03;5107944;28;20051;-71
2021/12/22 09:24:19;;;;;;;76.82;29.75;;;;;;;-2.20;100.00;102626.97;5103049;28;20016;-70
2021/12/22 09:26:45;;;;;;;67.20;30.25;;;;;;;-2.17;100.00;102624.72;5106874;28;20487;-70
2021/12/22 09:29:11;;;;;;;63.28;28.55;;;;;;;-2.14;100.00;102625.00;5113061;28;20023;-69
2021/12/22 09:31:37;;;;;;;59.33;27.80;;;;;;;-2.12;100.00;102618.28;5105674;28;20044;-69
2021/12/22 09:34:04;;;;;;;62.63;27.90;;;;;;;-2.11;100.00;102614.06;5106635;28;20054;-70
2021/12/22 09:36:29;;;;;;;54.53;26.20;;;;;;;-2.09;100.00;102618.63;5112399;28;20034;-71
2021/12/22 09:38:55;;;;;;;51.58;25.92;;;;;;;-2.05;100.00;102615.56;5104993;28;20413;-72
2021/12/22 09:41:20;;;;;;;54.60;25.10;;;;;;;-2.01;100.00;102611.59;5104897;28;20105;-73
2021/12/22 09:43:46;;;;;;;53.78;25.40;;;;;;;-1.95;100.00;102619.03;5101136;28;20364;-70
2021/12/22 09:46:16;;;;;;;63.88;26.92;;;;;;;-1.85;100.00;102619.13;5104993;28;20038;-71
2021/12/22 09:53:48;;;;;;;51.67;24.67;;;;;;;-0.95;100.00;102617.13;5102736;28;20032;-75
2021/12/22 09:56:16;;;;;;;47.42;24.10;;;;;;;-0.61;100.00;102613.38;5107972;28;20030;-74
2021/12/22 09:58:44;;;;;;;46.03;23.42;;;;;;;-0.33;100.00;102607.19;5107697;28;20499;-75
2021/12/22 10:01:11;;;;;;;40.67;21.23;;;;;;;-0.20;100.00;102594.56;5091472;28;20039;-73
2021/12/22 10:03:38;;;;;;;47.42;21.50;;;;;;;-0.14;100.00;102599.38;5079001;28;20098;-71
2021/12/22 10:06:05;;;;;;;39.47;20.73;;;;;;;-0.01;100.00;102599.69;5103743;28;20052;-77
2021/12/22 10:08:32;;;;;;;37.15;21.52;;;;;;;0.08;100.00;102597.91;5104902;28;20030;-77
2021/12/22 10:11:10;;;;;;;37.70;21.50;;;;;;;0.25;100.00;102599.34;5112694;28;20027;-77
2021/12/22 10:13:43;;;;;;;44.08;21.83;;;;;;;0.39;100.00;102591.88;5091519;28;20555;-77
2021/12/22 10:16:21;;;;;;;38.40;21.75;;;;;;;0.39;100.00;102586.69;5092008;28;20450;-76
2021/12/22 10:18:47;;;;;;;49.50;22.50;;;;;;;0.73;100.00;102595.66;5082877;28;20538;-74
2021/12/22 10:21:16;;;;;;;33.75;19.95;;;;;;;1.05;99.18;102592.28;5099777;28;20053;-73
2021/12/22 10:23:51;;;;;;;38.35;19.90;;;;;;;1.30;98.05;102587.44;5096998;28;20038;-78
2021/12/22 10:26:20;;;;;;;31.33;18.27;;;;;;;1.56;96.28;102580.91;5079851;28;20031;-80
2021/12/22 10:28:47;;;;;;;43.75;22.17;;;;;;;1.61;95.26;102576.06;5109903;28;20479;-81
2021/12/22 10:31:13;;;;;;;44.10;23.65;;;;;;;1.60;95.10;102580.34;5086712;28;20039;-81
2021/12/22 10:33:41;;;;;;;39.03;22.60;;;;;;;1.65;96.63;102579.00;5099983;28;20023;-81
2021/12/22 10:36:13;;;;;;;33.10;20.58;;;;;;;1.79;95.83;102587.94;5087177;28;20135;-81
2021/12/22 10:38:47;;;;;;;33.40;19.92;;;;;;;2.06;93.26;102582.22;5106406;28;20074;-81
2021/12/22 10:41:12;;;;;;;34.50;19.17;;;;;;;2.16;93.24;102575.28;5106033;28;20096;-81
2021/12/22 10:43:45;;;;;;;39.88;19.15;;;;;;;2.17;91.75;102573.56;5083862;28;20119;-81
2021/12/22 10:46:15;;;;;;;31.90;17.73;;;;;;;2.21;91.73;102567.81;5080325;28;20036;-81
2021/12/22 10:51:32;;;;;;;39.25;20.33;;;;;;;2.11;92.31;102575.69;5108514;28;20550;-80
2021/12/22 10:54:00;;;;;;;35.25;19.48;;;;;;;2.06;94.03;102567.53;5088646;28;20059;-80
2021/12/22 10:56:27;;;;;;;33.90;18.77;;;;;;;2.32;91.74;102561.81;5105887;28;20084;-80
2021/12/22 10:59:02;;;;;;;31.40;18.45;;;;;;;2.39;89.30;102551.88;5087496;28;20046;-80
2021/12/22 11:01:31;;;;;;;36.35;19.00;;;;;;;2.41;90.22;102552.91;5090785;28;20046;-80
2021/12/22 11:04:05;;;;;;;35.47;18.40;;;;;;;2.49;89.12;102549.22;5094037;28;20036;-80
2021/12/22 11:06:34;;;;;;;32.17;19.05;;;;;;;2.48;88.02;102548.31;5114299;28;20115;-80
2021/12/22 11:09:24;;;;;;;37.35;18.35;;;;;;;2.59;88.37;102538.75;5082688;28;20024;-79
2021/12/22 11:11:50;;;;;;;32.20;18.33;;;;;;;2.60;88.71;102526.63;5108478;28;20420;-80
2021/12/22 11:14:22;;;;;;;29.92;18.00;;;;;;;2.70;88.46;102527.47;5105488;28;20138;-80
2021/12/22 11:16:56;;;;;;;31.55;17.90;;;;;;;2.86;87.96;102526.91;5087560;28;20134;-79
2021/12/22 11:19:24;;;;;;;32.92;18.20;;;;;;;2.95;86.65;102524.09;5094363;28;20114;-79
2021/12/22 11:22:36;;;;;;;33.80;18.88;;;;;;;3.12;88.33;102520.16;5097382;28;20035;-78